Time;durP1;ratioP1;P1;durP2;ratioP2;P2;SDS_P1;SDS_P2;PMS_P1;PMS_P2;Temp;Humidity;BMP_temperature;BMP_pressure;BME280_temperature;BME280_humidity;BME280_pressure;Samples;Min_cycle;Max_cycle;Signal;HPM_P1;HPM_P2
2021/11/26 00:02:00;;;;;;;15.60;11.55;;;;;;;5.12;76.18;99815.13;5087491;28;20089;-53
2021/11/26 00:04:26;;;;;;;14.68;11.40;;;;;;;5.12;75.30;99822.06;5086298;28;20411;-50
2021/11/26 00:06:51;;;;;;;14.45;10.93;;;;;;;5.12;76.02;99809.88;5088977;28;20024;-50
2021/11/26 00:09:16;;;;;;;15.27;12.05;;;;;;;5.10;76.47;99813.38;5086025;28;20103;-50
2021/11/26 00:11:42;;;;;;;15.85;10.80;;;;;;;5.11;76.40;99810.72;5088021;28;21425;-51
2021/11/26 00:14:25;;;;;;;15.13;12.07;;;;;;;5.10;76.92;99803.78;5090877;28;20131;-51
2021/11/26 00:16:57;;;;;;;14.77;11.48;;;;;;;5.09;76.29;99807.25;5087339;28;20023;-52
2021/11/26 00:19:22;;;;;;;;;;;;;;;5.12;76.01;99806.38;5086545;28;20483;-52
2021/11/26 00:21:47;;;;;;;17.33;11.65;;;;;;;5.09;76.88;99798.53;5086658;28;19915;-52
2021/11/26 00:24:13;;;;;;;15.90;11.02;;;;;;;5.09;76.12;99801.16;5087492;28;20086;-53
2021/11/26 00:26:39;;;;;;;15.18;12.00;;;;;;;5.09;76.23;99795.94;5068701;28;20028;-54
2021/11/26 00:29:04;;;;;;;15.13;11.35;;;;;;;5.09;76.19;99802.03;5086573;28;20098;-52
2021/11/26 00:31:30;;;;;;;12.60;10.55;;;;;;;5.10;76.18;99795.06;5087910;28;20042;-52
2021/11/26 00:33:55;;;;;;;16.45;11.55;;;;;;;5.09;75.97;99795.94;5071206;28;20081;-54
2021/11/26 00:36:20;;;;;;;15.05;11.70;;;;;;;5.08;76.27;99794.19;5089004;28;20499;-53
2021/11/26 00:38:46;;;;;;;15.35;11.85;;;;;;;5.09;75.84;99790.69;5067896;28;20058;-55
2021/11/26 00:41:11;;;;;;;16.10;11.57;;;;;;;5.08;75.91;99784.63;5087981;28;20043;-54
2021/11/26 00:43:36;;;;;;;13.20;10.90;;;;;;;5.08;76.57;99786.34;5088333;28;20027;-54
2021/11/26 00:46:02;;;;;;;16.42;12.25;;;;;;;5.08;75.42;99783.75;5089124;28;20032;-53
2021/11/26 00:48:27;;;;;;;13.30;10.18;;;;;;;5.09;75.99;99782.84;5070772;28;20040;-50
2021/11/26 00:50:52;;;;;;;14.70;10.15;;;;;;;5.08;76.91;99786.34;5088133;28;20487;-49
2021/11/26 00:53:18;;;;;;;15.75;11.77;;;;;;;5.08;76.12;99776.78;5090154;28;20463;-52
2021/11/26 00:55:43;;;;;;;14.98;10.88;;;;;;;5.06;76.11;99773.28;5088384;28;20035;-50
2021/11/26 00:58:09;;;;;;;16.02;11.57;;;;;;;5.09;75.75;99769.78;5088684;28;20106;-51
2021/11/26 01:00:35;;;;;;;14.02;10.55;;;;;;;5.07;76.04;99769.78;5087614;28;20023;-51
2021/11/26 01:03:01;;;;;;;14.40;11.45;;;;;;;5.07;76.65;99771.56;5088387;28;20028;-52
2021/11/26 01:05:26;;;;;;;15.15;11.15;;;;;;;5.06;75.93;99769.78;5088973;28;20042;-53
2021/11/26 01:07:52;;;;;;;15.52;11.73;;;;;;;5.07;75.89;99768.94;5086127;28;20019;-54
2021/11/26 01:10:19;;;;;;;17.05;11.27;;;;;;;5.06;75.64;99764.56;5089023;28;20103;-53
2021/11/26 01:12:45;;;;;;;16.25;11.60;;;;;;;5.07;76.67;99761.09;5068986;28;20024;-52
2021/11/26 01:15:12;;;;;;;14.30;11.32;;;;;;;5.06;76.00;99764.56;5086365;28;20024;-53
2021/11/26 01:17:41;;;;;;;15.63;11.32;;;;;;;5.04;76.00;99755.88;5084553;28;20042;-52
2021/11/26 01:20:08;;;;;;;15.85;12.15;;;;;;;5.06;75.56;99759.34;5085452;28;20100;-51
2021/11/26 01:22:33;;;;;;;16.60;12.10;;;;;;;5.05;76.69;99749.75;5054022;28;20114;-53
2021/11/26 01:24:59;;;;;;;15.48;11.73;;;;;;;5.05;76.02;99752.38;5090632;28;20458;-51
2021/11/26 01:27:24;;;;;;;15.40;11.27;;;;;;;5.03;76.27;99744.53;5087831;28;20035;-52
2021/11/26 01:29:49;;;;;;;15.73;11.95;;;;;;;5.03;75.74;99739.31;5089939;28;20035;-54
2021/11/26 01:32:15;;;;;;;16.10;12.07;;;;;;;5.01;75.81;99736.69;5068924;28;20026;-53
2021/11/26 01:34:40;;;;;;;17.50;11.77;;;;;;;5.01;75.54;99734.06;5067393;28;20387;-52
2021/11/26 01:37:05;;;;;;;16.02;12.00;;;;;;;5.03;76.01;99741.06;5087202;28;20611;-52
2021/11/26 01:39:31;;;;;;;15.43;12.10;;;;;;;5.00;75.72;99734.06;5087389;28;20028;-52
2021/11/26 01:41:56;;;;;;;14.98;11.63;;;;;;;5.01;75.94;99731.47;5086943;28;20564;-52
2021/11/26 01:44:22;;;;;;;14.07;11.27;;;;;;;5.01;75.75;99733.22;5087004;28;20027;-52
2021/11/26 01:46:47;;;;;;;16.15;11.68;;;;;;;5.01;76.33;99723.63;5085217;28;20158;-52
2021/11/26 01:49:13;;;;;;;15.73;11.77;;;;;;;5.00;75.72;99721.00;5089908;28;20024;-54
2021/11/26 01:51:39;;;;;;;13.95;11.52;;;;;;;4.99;75.74;99709.69;5068270;28;20476;-52
2021/11/26 01:54:06;;;;;;;16.13;12.00;;;;;;;4.98;75.45;99710.59;5089631;28;20047;-53
2021/11/26 01:56:32;;;;;;;16.45;11.85;;;;;;;4.97;76.44;99714.03;5069140;28;20034;-50
2021/11/26 01:58:58;;;;;;;16.25;11.20;;;;;;;4.98;76.43;99701.88;5035420;28;20418;-52
2021/11/26 02:01:24;;;;;;;17.38;12.38;;;;;;;4.98;76.33;99702.75;5086896;28;20130;-50
2021/11/26 02:03:51;;;;;;;18.75;12.27;;;;;;;4.97;75.53;99690.53;5055824;28;20114;-52
2021/11/26 02:06:16;;;;;;;15.77;11.63;;;;;;;4.95;76.28;99680.94;5070281;28;20028;-50
2021/11/26 02:08:42;;;;;;;14.63;11.00;;;;;;;4.97;76.40;99682.69;5081944;28;20024;-50
2021/11/26 02:11:08;;;;;;;14.93;11.80;;;;;;;4.96;75.48;99673.13;5071376;28;20016;-50
2021/11/26 02:13:33;;;;;;;15.25;11.15;;;;;;;4.96;75.59;99675.72;5054385;28;20066;-53
2021/11/26 02:16:00;;;;;;;17.67;11.80;;;;;;;4.92;76.54;99666.16;5070418;28;20116;-51
2021/11/26 02:18:26;;;;;;;15.77;12.05;;;;;;;4.94;76.08;99672.22;5085262;28;20151;-51
2021/11/26 02:20:52;;;;;;;16.23;12.23;;;;;;;4.95;75.82;99674.00;5067629;28;20119;-52
2021/11/26 02:23:18;;;;;;;17.60;12.15;;;;;;;4.93;75.80;99670.50;5068708;28;20056;-52
2021/11/26 02:25:44;;;;;;;16.52;11.30;;;;;;;4.93;76.61;99674.88;5083824;28;20114;-54
2021/11/26 02:28:10;;;;;;;17.63;11.75;;;;;;;4.92;76.50;99674.00;5084310;28;20498;-51
2021/11/26 02:30:36;;;;;;;18.20;12.27;;;;;;;4.92;76.59;99666.16;5087479;28;20024;-52
2021/11/26 02:33:06;;;;;;;18.52;12.48;;;;;;;4.92;76.64;99666.16;5068471;28;20028;-53
2021/11/26 02:35:32;;;;;;;17.05;12.45;;;;;;;4.90;76.54;99662.66;5084324;28;20102;-54
2021/11/26 02:37:58;;;;;;;14.82;12.30;;;;;;;4.90;76.63;99669.66;5067409;28;20024;-52
2021/11/26 02:40:25;;;;;;;15.27;11.13;;;;;;;4.89;76.98;99663.53;5084254;28;20106;-52
2021/11/26 02:42:51;;;;;;;16.73;11.40;;;;;;;4.88;77.00;99657.44;5085381;28;20115;-52
2021/11/26 02:45:18;;;;;;;17.23;11.38;;;;;;;4.86;76.85;99650.47;5087300;28;20098;-52
2021/11/26 02:47:44;;;;;;;14.80;12.07;;;;;;;4.87;76.25;99649.63;5086820;28;20053;-54
2021/11/26 02:50:10;;;;;;;16.52;12.18;;;;;;;4.87;76.86;99654.84;5067457;28;20028;-54
2021/11/26 02:52:37;;;;;;;15.45;11.25;;;;;;;4.86;76.82;99640.03;5087372;28;20680;-54
2021/11/26 02:55:06;;;;;;;16.45;12.25;;;;;;;4.85;76.83;99639.19;5085421;28;20028;-51
2021/11/26 02:57:31;;;;;;;16.45;12.55;;;;;;;4.85;75.86;99640.91;5085679;28;20810;-51
2021/11/26 02:59:57;;;;;;;16.55;12.75;;;;;;;4.87;76.67;99628.72;5088447;28;20028;-52
2021/11/26 03:02:22;;;;;;;17.05;11.88;;;;;;;4.85;75.54;99635.69;5087565;28;20033;-49
2021/11/26 03:04:47;;;;;;;15.77;11.77;;;;;;;4.86;76.41;99624.34;5087210;28;20471;-50
2021/11/26 03:07:13;;;;;;;16.30;11.82;;;;;;;4.84;76.76;99629.56;5067280;28;20036;-51
2021/11/26 03:09:38;;;;;;;16.67;11.73;;;;;;;4.85;76.50;99625.22;5088708;28;20028;-50
2021/11/26 03:12:05;;;;;;;16.50;12.55;;;;;;;4.84;76.13;99626.13;5088055;28;20037;-50
2021/11/26 03:14:30;;;;;;;16.27;12.02;;;;;;;4.83;76.90;99622.63;5088223;28;20031;-51
2021/11/26 03:16:56;;;;;;;15.27;11.38;;;;;;;4.83;76.27;99624.34;5085171;28;20020;-52
2021/11/26 03:19:21;;;;;;;14.90;11.60;;;;;;;4.83;76.65;99616.50;5086383;28;20403;-52
2021/11/26 03:21:46;;;;;;;17.08;11.20;;;;;;;4.84;76.78;99621.75;5085094;28;20016;-52
2021/11/26 03:24:12;;;;;;;16.00;11.75;;;;;;;4.84;76.30;99628.72;5087023;28;20077;-54
2021/11/26 03:26:37;;;;;;;17.23;11.85;;;;;;;4.83;76.55;99624.34;5086605;28;20028;-54
2021/11/26 03:29:03;;;;;;;13.48;10.85;;;;;;;4.82;77.39;99610.44;5084127;28;20035;-54
2021/11/26 03:31:28;;;;;;;16.92;11.65;;;;;;;4.84;76.01;99613.06;5086064;28;20503;-54
2021/11/26 03:33:53;;;;;;;13.85;10.55;;;;;;;4.83;76.48;99606.06;5068471;28;20618;-53
2021/11/26 03:36:19;;;;;;;17.55;12.23;;;;;;;4.81;76.13;99613.06;5089879;28;20040;-54
2021/11/26 03:38:44;;;;;;;15.63;10.93;;;;;;;4.81;77.01;99606.09;5089230;28;20040;-54
2021/11/26 03:41:11;;;;;;;15.43;10.88;;;;;;;4.84;76.20;99605.22;5088273;28;20035;-54
2021/11/26 03:43:37;;;;;;;15.55;11.10;;;;;;;4.83;76.69;99606.06;5088261;28;20020;-55
2021/11/26 03:46:02;;;;;;;14.65;10.77;;;;;;;4.82;76.46;99594.75;5071451;28;20021;-54
2021/11/26 03:48:27;;;;;;;14.93;10.70;;;;;;;4.81;76.75;99594.75;5087363;28;20086;-54
2021/11/26 03:50:52;;;;;;;15.18;11.25;;;;;;;4.81;76.21;99592.16;5069188;28;20044;-54
2021/11/26 03:53:18;;;;;;;16.42;11.65;;;;;;;4.81;76.44;99592.16;5090051;28;20032;-54
2021/11/26 03:55:43;;;;;;;17.63;11.70;;;;;;;4.80;76.07;99590.41;5071672;28;20055;-54
2021/11/26 03:58:09;;;;;;;16.30;11.20;;;;;;;4.81;76.66;99585.19;5070350;28;20114;-50
2021/11/26 04:00:35;;;;;;;13.65;10.50;;;;;;;4.81;75.80;99582.59;5078957;28;20028;-52
2021/11/26 04:03:00;;;;;;;15.95;10.55;;;;;;;4.80;76.89;99579.97;5088891;28;20070;-52
2021/11/26 04:05:26;;;;;;;12.68;10.35;;;;;;;4.79;76.59;99583.44;5088494;28;20101;-52
2021/11/26 04:07:51;;;;;;;16.73;11.40;;;;;;;4.78;76.16;99576.47;5089298;28;20021;-52
2021/11/26 04:10:17;;;;;;;13.60;10.35;;;;;;;4.79;76.71;99568.66;5072159;28;20067;-52
2021/11/26 04:12:44;;;;;;;14.75;10.82;;;;;;;4.78;75.93;99564.31;5086430;28;20024;-52
2021/11/26 04:15:12;;;;;;;12.98;10.48;;;;;;;4.79;76.18;99565.16;5070319;28;20036;-52
2021/11/26 04:17:37;;;;;;;16.25;11.20;;;;;;;4.78;76.33;99560.81;5087683;28;20070;-52
2021/11/26 04:20:05;;;;;;;13.70;10.45;;;;;;;4.78;77.02;99555.59;5085459;28;20051;-52
2021/11/26 04:22:30;;;;;;;15.10;11.07;;;;;;;4.78;76.54;99558.19;5071559;28;20397;-52
2021/11/26 04:24:56;;;;;;;15.13;11.18;;;;;;;4.78;76.51;99547.75;5069742;28;20016;-52
2021/11/26 04:27:21;;;;;;;13.90;10.55;;;;;;;4.77;76.43;99549.47;5071842;28;20051;-52
2021/11/26 04:29:46;;;;;;;13.60;10.63;;;;;;;4.75;76.51;99548.63;5089333;28;20015;-54
2021/11/26 04:32:13;;;;;;;16.27;11.32;;;;;;;4.74;76.44;99533.84;5088541;28;20059;-54
2021/11/26 04:34:39;;;;;;;14.68;10.43;;;;;;;4.75;76.39;99522.50;5082304;28;20073;-54
2021/11/26 04:37:04;;;;;;;16.45;11.40;;;;;;;4.75;76.13;99525.13;5082696;28;20024;-54
2021/11/26 04:39:29;;;;;;;17.27;11.27;;;;;;;4.74;75.50;99529.47;5067484;28;20023;-52
2021/11/26 04:41:54;;;;;;;16.85;11.32;;;;;;;4.74;76.46;99524.22;5090036;28;20436;-54
2021/11/26 04:44:20;;;;;;;15.60;11.00;;;;;;;4.73;76.10;99522.50;5087884;28;20024;-54
2021/11/26 04:46:45;;;;;;;12.32;10.60;;;;;;;4.74;75.66;99528.63;5082107;28;20028;-53
2021/11/26 04:49:10;;;;;;;12.75;10.38;;;;;;;4.70;76.04;99527.75;5087211;28;20028;-54
2021/11/26 04:51:36;;;;;;;14.45;10.63;;;;;;;4.73;76.59;99526.84;5088133;28;20028;-51
2021/11/26 04:54:01;;;;;;;14.38;10.85;;;;;;;4.73;76.70;99521.63;5088339;28;20069;-55
2021/11/26 04:56:27;;;;;;;16.35;10.88;;;;;;;4.73;75.53;99524.25;5086631;28;20059;-54
2021/11/26 04:58:52;;;;;;;17.25;12.07;;;;;;;4.72;76.05;99514.66;5085717;28;20035;-53
2021/11/26 05:01:17;;;;;;;16.17;11.45;;;;;;;4.71;76.15;99519.03;5088713;28;20118;-54
2021/11/26 05:03:43;;;;;;;15.23;10.73;;;;;;;4.72;76.42;99510.34;5068631;28;20376;-54
2021/11/26 05:06:08;;;;;;;14.43;11.68;;;;;;;4.70;76.17;99512.06;5087839;28;20102;-54
2021/11/26 05:08:34;;;;;;;17.73;11.48;;;;;;;4.69;75.91;99505.13;5086212;28;20103;-54
2021/11/26 05:10:59;;;;;;;14.15;10.70;;;;;;;4.70;75.38;99508.59;5088641;28;20061;-55
2021/11/26 05:13:28;;;;;;;19.17;11.88;;;;;;;4.69;76.33;99505.13;5089056;28;20498;-54
2021/11/26 05:15:53;;;;;;;19.02;12.13;;;;;;;4.70;76.18;99496.41;5085377;28;20027;-55
2021/11/26 05:18:23;;;;;;;16.23;12.23;;;;;;;4.68;76.56;99495.53;5067333;28;20020;-54
2021/11/26 05:20:49;;;;;;;14.57;11.25;;;;;;;4.68;76.01;99497.28;5087845;28;20020;-54
2021/11/26 05:23:15;;;;;;;17.70;11.80;;;;;;;4.67;76.14;99500.78;5087084;28;20043;-53
2021/11/26 05:25:40;;;;;;;17.35;10.65;;;;;;;4.69;76.34;99499.00;5086776;28;20032;-55
2021/11/26 05:28:05;;;;;;;15.75;11.07;;;;;;;4.68;76.00;99495.53;5087692;28;20023;-54
2021/11/26 05:30:30;;;;;;;16.17;11.77;;;;;;;4.67;76.15;99485.94;5083877;28;20020;-54
2021/11/26 05:32:56;;;;;;;17.20;11.68;;;;;;;4.66;76.67;99484.22;5084927;28;20031;-54
2021/11/26 05:35:21;;;;;;;14.35;11.43;;;;;;;4.66;76.19;99475.50;5088209;28;20036;-54
2021/11/26 05:37:47;;;;;;;14.65;11.07;;;;;;;4.65;75.90;99476.38;5084186;28;20031;-50
2021/11/26 05:40:14;;;;;;;17.08;11.80;;;;;;;4.66;75.79;99473.78;5069785;28;20028;-50
2021/11/26 05:42:41;;;;;;;16.58;12.15;;;;;;;4.67;76.48;99478.13;5049593;28;20028;-51
2021/11/26 05:45:08;;;;;;;16.98;11.77;;;;;;;4.67;75.96;99478.13;5085186;28;20458;-50
2021/11/26 05:47:33;;;;;;;14.10;10.65;;;;;;;4.66;76.25;99473.78;5086335;28;20032;-49
2021/11/26 05:49:59;;;;;;;15.10;10.57;;;;;;;4.65;75.64;99466.81;5066945;28;20381;-50
2021/11/26 05:52:24;;;;;;;15.07;11.70;;;;;;;4.64;75.97;99465.09;5068121;28;20028;-52
2021/11/26 05:54:49;;;;;;;15.85;11.98;;;;;;;4.62;76.10;99467.72;5069937;28;20515;-51
2021/11/26 05:57:14;;;;;;;15.07;11.88;;;;;;;4.64;75.75;99457.25;5047949;28;20043;-51
2021/11/26 05:59:40;;;;;;;17.40;12.30;;;;;;;4.67;75.88;99453.75;5083765;28;20031;-51
2021/11/26 06:02:05;;;;;;;15.88;11.23;;;;;;;4.64;76.52;99456.38;5086405;28;20431;-50
2021/11/26 06:04:31;;;;;;;17.88;12.80;;;;;;;4.64;76.58;99448.53;5084757;28;20047;-50
2021/11/26 06:06:57;;;;;;;16.10;11.23;;;;;;;4.64;76.26;99454.66;5085919;28;20031;-52
2021/11/26 06:09:23;;;;;;;17.65;11.38;;;;;;;4.64;75.78;99449.41;5086213;28;20020;-50
2021/11/26 06:11:48;;;;;;;14.77;10.90;;;;;;;4.64;76.08;99449.41;5083420;28;20111;-49
2021/11/26 06:14:14;;;;;;;17.50;11.75;;;;;;;4.64;75.66;99446.81;5085420;28;20027;-50
2021/11/26 06:16:39;;;;;;;15.13;11.10;;;;;;;4.63;75.76;99447.66;5086473;28;20055;-53
2021/11/26 06:19:05;;;;;;;15.80;11.35;;;;;;;4.64;75.59;99445.94;5086420;28;20071;-52
2021/11/26 06:21:30;;;;;;;15.23;11.18;;;;;;;4.61;75.75;99454.66;5089096;28;20395;-51
2021/11/26 06:23:56;;;;;;;14.95;11.85;;;;;;;4.61;75.25;99444.22;5087675;28;20031;-51
2021/11/26 06:26:21;;;;;;;17.15;11.98;;;;;;;4.62;75.84;99449.44;5068825;28;20052;-50
2021/11/26 06:28:46;;;;;;;16.80;11.82;;;;;;;4.62;75.85;99454.66;5085561;28;20053;-52
2021/11/26 06:31:12;;;;;;;16.50;11.63;;;;;;;4.63;75.63;99445.06;5063678;28;20116;-52
2021/11/26 06:33:37;;;;;;;17.60;12.10;;;;;;;4.63;76.09;99437.22;5081975;28;20028;-52
2021/11/26 06:36:02;;;;;;;17.23;12.10;;;;;;;4.60;76.35;99432.88;5088068;28;20036;-52
2021/11/26 06:38:28;;;;;;;16.85;11.48;;;;;;;4.60;75.65;99437.22;5084492;28;20763;-52
2021/11/26 06:40:53;;;;;;;17.48;11.95;;;;;;;4.59;75.93;99430.28;5064615;28;20524;-52
2021/11/26 06:43:18;;;;;;;15.43;12.25;;;;;;;4.58;75.57;99428.53;5086032;28;20042;-52
2021/11/26 06:45:44;;;;;;;14.82;11.50;;;;;;;4.60;76.10;99432.00;5082906;28;20373;-52
2021/11/26 06:48:09;;;;;;;15.73;11.23;;;;;;;4.56;76.26;99423.31;5085969;28;20107;-52
2021/11/26 06:50:36;;;;;;;17.02;11.65;;;;;;;4.59;75.75;99425.06;5082792;28;20022;-52
2021/11/26 06:53:03;;;;;;;16.60;12.13;;;;;;;4.57;75.37;99421.59;5082931;28;20028;-52
2021/11/26 06:55:28;;;;;;;15.70;11.95;;;;;;;4.59;76.26;99414.59;5068616;28;20460;-52
2021/11/26 06:57:53;;;;;;;17.75;12.57;;;;;;;4.58;75.48;99415.50;5086073;28;20479;-51
2021/11/26 07:00:19;;;;;;;16.13;12.52;;;;;;;4.58;76.14;99407.66;5086757;28;20031;-52
2021/11/26 07:02:44;;;;;;;18.25;11.63;;;;;;;4.58;76.36;99411.16;5084060;28;20039;-52
2021/11/26 07:05:10;;;;;;;16.70;11.57;;;;;;;4.58;75.22;99405.91;5087217;28;20024;-52
2021/11/26 07:07:35;;;;;;;16.05;11.95;;;;;;;4.58;75.53;99405.03;5082641;28;20548;-52
2021/11/26 07:10:04;;;;;;;16.98;11.93;;;;;;;4.56;75.48;99406.78;5051827;28;20024;-52
2021/11/26 07:12:29;;;;;;;19.67;12.13;;;;;;;4.56;75.94;99399.81;5090558;28;20039;-51
2021/11/26 07:14:55;;;;;;;16.17;12.20;;;;;;;4.56;75.63;99399.81;5088312;28;20028;-52
2021/11/26 07:17:20;;;;;;;16.17;11.82;;;;;;;4.55;76.05;99394.59;5089604;28;20032;-52
2021/11/26 07:19:47;;;;;;;21.55;13.25;;;;;;;4.57;75.26;99400.69;5087143;28;20070;-52
2021/11/26 07:22:13;;;;;;;15.98;11.23;;;;;;;4.55;75.03;99386.78;5073409;28;20143;-51
2021/11/26 07:24:38;;;;;;;16.85;11.77;;;;;;;4.56;75.01;99388.50;5086314;28;20494;-52
2021/11/26 07:27:04;;;;;;;19.50;13.48;;;;;;;4.56;75.23;99393.72;5087488;28;20124;-52
2021/11/26 07:29:30;;;;;;;16.83;12.27;;;;;;;4.53;75.51;99383.31;5090700;28;20016;-52
2021/11/26 07:31:55;;;;;;;16.52;12.20;;;;;;;4.55;76.05;99386.78;5068994;28;20016;-52
2021/11/26 07:34:21;;;;;;;17.80;12.80;;;;;;;4.53;75.48;99365.88;5087261;28;20043;-52
2021/11/26 07:36:46;;;;;;;19.13;13.32;;;;;;;4.54;75.61;99367.66;5088473;28;20066;-52
2021/11/26 07:39:11;;;;;;;17.45;12.50;;;;;;;4.53;76.04;99365.03;5087462;28;20073;-51
2021/11/26 07:41:37;;;;;;;19.40;13.40;;;;;;;4.54;75.21;99361.53;5087130;28;20021;-52
2021/11/26 07:44:02;;;;;;;18.38;13.00;;;;;;;4.53;75.38;99355.44;5088705;28;20810;-52
2021/11/26 07:46:28;;;;;;;17.17;11.95;;;;;;;4.53;75.32;99357.19;5070061;28;20020;-52
2021/11/26 07:48:53;;;;;;;16.08;11.82;;;;;;;4.53;75.66;99346.75;5090919;28;20036;-52
2021/11/26 07:51:18;;;;;;;18.83;12.07;;;;;;;4.55;75.19;99350.22;5088929;28;20039;-52
2021/11/26 07:53:44;;;;;;;17.38;13.10;;;;;;;4.54;75.80;99348.47;5086507;28;20121;-52
2021/11/26 07:56:09;;;;;;;19.17;12.90;;;;;;;4.55;75.53;99345.00;5086183;28;20028;-52
2021/11/26 07:58:34;;;;;;;17.80;12.70;;;;;;;4.52;75.64;99331.94;5087075;28;20402;-52
2021/11/26 08:01:00;;;;;;;17.23;12.40;;;;;;;4.54;75.43;99333.69;5067813;28;20055;-51
2021/11/26 08:03:25;;;;;;;18.80;12.88;;;;;;;4.53;75.28;99336.31;5086605;28;20086;-52
2021/11/26 08:05:51;;;;;;;18.48;13.30;;;;;;;4.53;75.74;99331.09;5066384;28;20024;-52
2021/11/26 08:08:16;;;;;;;20.35;13.52;;;;;;;4.52;74.93;99330.22;5086510;28;20032;-52
2021/11/26 08:10:42;;;;;;;17.95;12.57;;;;;;;4.54;74.62;99335.44;5089054;28;20050;-52
2021/11/26 08:13:07;;;;;;;17.67;12.32;;;;;;;4.51;75.12;99328.47;5085411;28;20068;-52
2021/11/26 08:15:33;;;;;;;17.02;12.93;;;;;;;4.52;75.36;99324.09;5088781;28;20035;-52
2021/11/26 08:18:00;;;;;;;17.48;12.70;;;;;;;4.51;75.20;99319.78;5084842;28;20455;-52
2021/11/26 08:20:26;;;;;;;20.80;13.13;;;;;;;4.51;75.21;99311.94;5065954;28;20020;-52
2021/11/26 08:22:52;;;;;;;16.25;12.40;;;;;;;4.51;75.27;99314.56;5086270;28;20024;-53
2021/11/26 08:25:19;;;;;;;20.17;13.77;;;;;;;4.51;75.22;99311.94;5070204;28;20027;-52
2021/11/26 08:27:45;;;;;;;21.63;14.02;;;;;;;4.48;75.14;99302.38;5067601;28;20024;-52
2021/11/26 08:30:11;;;;;;;18.80;12.68;;;;;;;4.48;75.97;99308.50;5085957;28;20012;-52
2021/11/26 08:32:36;;;;;;;17.65;12.23;;;;;;;4.49;75.71;99309.34;5086654;28;20028;-52
2021/11/26 08:35:02;;;;;;;17.63;12.63;;;;;;;4.47;75.67;99306.72;5085454;28;20028;-51
2021/11/26 08:37:28;;;;;;;19.65;13.00;;;;;;;4.48;75.98;99311.09;5086707;28;20111;-52
2021/11/26 08:39:53;;;;;;;20.75;14.00;;;;;;;4.50;75.50;99305.84;5090355;28;20115;-51
2021/11/26 08:42:18;;;;;;;19.13;13.23;;;;;;;4.49;75.64;99305.00;5082759;28;21191;-51
2021/11/26 08:44:44;;;;;;;20.63;13.20;;;;;;;4.48;75.42;99299.78;5086856;28;20035;-52
2021/11/26 08:47:09;;;;;;;16.50;11.73;;;;;;;4.48;75.68;99305.88;5084874;28;20020;-52
2021/11/26 08:49:34;;;;;;;21.20;13.35;;;;;;;4.48;76.13;99297.16;5084940;28;20085;-51
2021/11/26 08:52:00;;;;;;;17.73;12.02;;;;;;;4.46;75.98;99293.69;5070965;28;20029;-52
2021/11/26 08:54:25;;;;;;;22.17;14.45;;;;;;;4.46;75.81;99294.56;5068910;28;20035;-52
2021/11/26 08:56:54;;;;;;;17.73;13.02;;;;;;;4.46;75.45;99291.06;5085652;28;20028;-51
2021/11/26 08:59:20;;;;;;;18.05;12.82;;;;;;;4.46;76.00;99286.72;5071160;28;20158;-51
2021/11/26 09:01:47;;;;;;;20.35;13.27;;;;;;;4.45;75.31;99287.63;5086227;28;20535;-52
2021/11/26 09:04:12;;;;;;;20.15;13.45;;;;;;;4.47;75.04;99291.06;5084286;28;20085;-51
2021/11/26 09:06:38;;;;;;;16.83;13.07;;;;;;;4.47;75.34;99285.84;5069978;28;20032;-52
2021/11/26 09:09:04;;;;;;;16.55;11.63;;;;;;;4.47;75.99;99291.06;5086216;28;20066;-52
2021/11/26 09:11:29;;;;;;;17.77;12.38;;;;;;;4.48;75.88;99277.16;5088167;28;20039;-52
2021/11/26 09:13:55;;;;;;;20.42;14.15;;;;;;;4.48;75.45;99290.22;5089112;28;20024;-52
2021/11/26 09:16:20;;;;;;;16.60;11.77;;;;;;;4.49;75.73;99278.00;5085071;28;20063;-52
2021/11/26 09:18:46;;;;;;;18.40;13.25;;;;;;;4.48;75.92;99282.38;5085053;28;20042;-52
2021/11/26 09:21:11;;;;;;;19.05;12.73;;;;;;;4.49;76.06;99278.88;5084938;28;20118;-52
2021/11/26 09:23:37;;;;;;;23.75;14.43;;;;;;;4.48;76.32;99271.06;5084196;28;20032;-52
2021/11/26 09:26:02;;;;;;;20.80;12.93;;;;;;;4.47;76.51;99259.72;5065979;28;20059;-51
2021/11/26 09:28:28;;;;;;;19.00;13.40;;;;;;;4.47;76.95;99264.94;5090594;28;20410;-53
2021/11/26 09:30:53;;;;;;;19.15;12.48;;;;;;;4.46;76.09;99263.22;5089764;28;20043;-52
2021/11/26 09:33:19;;;;;;;20.10;12.35;;;;;;;4.46;75.72;99251.91;5085023;28;20149;-52
2021/11/26 09:35:45;;;;;;;17.70;12.98;;;;;;;4.48;76.78;99256.25;5078802;28;20705;-52
2021/11/26 09:38:11;;;;;;;20.25;13.13;;;;;;;4.49;76.42;99247.53;5086257;28;20031;-52
2021/11/26 09:40:36;;;;;;;18.85;12.45;;;;;;;4.49;75.87;99247.53;5084627;28;20028;-52
2021/11/26 09:43:02;;;;;;;19.67;13.25;;;;;;;4.49;76.16;99241.44;5066373;28;20031;-51
2021/11/26 09:45:31;;;;;;;21.17;13.93;;;;;;;4.49;75.98;99241.44;5085632;28;20097;-52
2021/11/26 09:47:56;;;;;;;22.48;13.15;;;;;;;4.51;76.24;99239.72;5084107;28;20028;-51
2021/11/26 09:50:25;;;;;;;19.75;13.38;;;;;;;4.52;76.13;99230.09;5085792;28;20020;-51
2021/11/26 09:52:51;;;;;;;18.17;12.45;;;;;;;4.51;75.79;99228.38;5064946;28;20040;-51
2021/11/26 09:55:17;;;;;;;18.95;12.73;;;;;;;4.52;76.16;99228.38;5087012;28;20100;-51
2021/11/26 09:57:43;;;;;;;21.83;13.63;;;;;;;4.53;75.93;99226.63;5066995;28;20024;-52
2021/11/26 10:00:12;;;;;;;22.23;13.85;;;;;;;4.53;77.18;99221.41;5080762;28;20383;-52
2021/11/26 10:02:37;;;;;;;18.30;12.13;;;;;;;4.55;76.35;99219.66;5082144;28;20024;-51
2021/11/26 10:05:08;;;;;;;20.80;12.80;;;;;;;4.51;76.63;99217.94;5083143;28;20034;-51
2021/11/26 10:07:44;;;;;;;21.20;13.70;;;;;;;4.52;76.51;99209.22;5066455;28;20444;-51
2021/11/26 10:10:11;;;;;;;16.88;12.07;;;;;;;4.52;75.96;99201.38;5080174;28;20055;-54
2021/11/26 10:12:38;;;;;;;17.30;11.95;;;;;;;4.53;76.16;99210.97;5087265;28;20787;-51
2021/11/26 10:15:05;;;;;;;18.38;11.90;;;;;;;4.53;76.52;99201.38;5084171;28;20035;-51
2021/11/26 10:17:31;;;;;;;21.70;12.43;;;;;;;4.52;76.58;99201.38;5068947;28;20028;-51
2021/11/26 10:19:58;;;;;;;21.95;12.73;;;;;;;4.56;76.02;99205.69;5084805;28;20020;-52
2021/11/26 10:22:25;;;;;;;16.65;11.80;;;;;;;4.56;76.23;99195.25;5083759;28;20028;-51
2021/11/26 10:25:14;;;;;;;17.75;11.90;;;;;;;4.57;75.82;99189.19;5086947;28;20483;-52
2021/11/26 10:27:43;;;;;;;18.67;11.63;;;;;;;4.57;74.99;99191.78;5082811;28;20036;-52
2021/11/26 10:30:26;;;;;;;18.45;11.18;;;;;;;4.55;75.36;99176.13;5085040;28;20141;-51
2021/11/26 10:33:06;;;;;;;17.80;11.50;;;;;;;4.56;75.61;99170.03;5081939;28;20032;-51
2021/11/26 10:35:35;;;;;;;16.73;10.85;;;;;;;4.56;75.26;99163.91;5084918;28;20024;-52
2021/11/26 10:38:19;;;;;;;16.83;11.57;;;;;;;4.55;75.17;99162.19;5086395;28;20518;-51
2021/11/26 10:40:49;;;;;;;15.43;10.63;;;;;;;4.53;75.10;99153.53;5085895;28;20075;-53
2021/11/26 10:43:18;;;;;;;16.33;11.05;;;;;;;4.55;75.04;99146.53;5088485;28;20060;-51
2021/11/26 10:48:42;;;;;;;14.25;10.25;;;;;;;4.55;74.83;99138.69;5090036;28;20042;-52
2021/11/26 10:57:10;;;;;;;15.70;10.35;;;;;;;4.55;75.48;99117.81;4987383;28;20117;-54
2021/11/26 10:59:35;;;;;;;17.00;9.68;;;;;;;4.55;75.99;99115.19;5079706;28;20039;-51
2021/11/26 11:02:00;;;;;;;14.57;9.98;;;;;;;4.56;75.57;99116.91;5091042;28;20024;-51
2021/11/26 11:04:27;;;;;;;16.27;10.13;;;;;;;4.56;76.18;99103.84;5090860;28;20024;-52
2021/11/26 11:07:09;;;;;;;14.27;8.85;;;;;;;4.56;76.33;99103.84;5088824;28;20974;-51
2021/11/26 11:09:42;;;;;;;13.43;9.65;;;;;;;4.56;75.61;99090.81;5062565;28;20598;-51
2021/11/26 11:12:08;;;;;;;13.27;7.97;;;;;;;4.57;75.82;99085.56;5089834;28;20107;-51
2021/11/26 11:14:33;;;;;;;14.07;8.65;;;;;;;4.56;76.32;99077.75;5092415;28;20103;-52
2021/11/26 11:16:59;;;;;;;12.27;8.13;;;;;;;4.58;75.61;99076.88;5090889;28;20111;-52
2021/11/26 11:19:25;;;;;;;12.27;8.35;;;;;;;4.58;76.29;99073.38;5073918;28;20038;-52
2021/11/26 11:21:53;;;;;;;12.85;8.05;;;;;;;4.59;75.99;99064.66;5070436;28;20054;-52
2021/11/26 11:24:19;;;;;;;10.30;7.00;;;;;;;4.59;75.95;99056.84;5071292;28;20032;-51
2021/11/26 11:26:47;;;;;;;12.43;7.38;;;;;;;4.60;75.54;99055.94;5089421;28;20391;-52
2021/11/26 11:29:14;;;;;;;11.95;7.45;;;;;;;4.62;76.02;99048.97;5091202;28;20487;-52
2021/11/26 11:31:41;;;;;;;9.73;6.50;;;;;;;4.60;76.01;99042.88;5087777;28;20028;-52